Time,TemperatureF,DewpointF,PressureIn,WindDirection,WindDirectionDegrees,WindSpeedMPH,WindSpeedGustMPH,Humidity,HourlyPrecipIn,Conditions,Clouds,dailyrainin,SoftwareType,DateUTC
2013-01-26 00:00:00,4.3,0.8,30.12,ESE,121,2.0,2.0,85,0.00,CLR,,0.00,WeatherDisplay:10.37,2013-01-25 23:00:00,
2013-01-26 00:10:00,4.1,0.6,30.12,SE,135,3.0,3.0,85,0.00,CLR,,0.00,WeatherDisplay:10.37,2013-01-25 23:10:00,
2013-01-26 00:20:00,3.9,0.4,30.11,SE,135,0.0,0.0,85,0.00,CLR,,0.00,WeatherDisplay:10.37,2013-01-25 23:20:00,
2013-01-26 00:30:00,3.7,0.2,30.11,SE,135,0.0,0.0,85,0.00,CLR,,0.00,WeatherDisplay:10.37,2013-01-25 23:30:00,
2013-01-26 00:40:00,3.7,0.2,30.11,SE,135,1.0,1.0,85,0.00,CLR,,0.00,WeatherDisplay:10.37,2013-01-25 23:40:00,
2013-01-26 00:50:00,3.6,0.1,30.11,SE,135,0.0,2.0,85,0.00,CLR,,0.00,WeatherDisplay:10.37,2013-01-25 23:50:00,
2013-01-26 01:00:00,3.4,-0.1,30.11,SE,135,0.0,0.0,85,0.00,CLR,,0.00,WeatherDisplay:10.37,2013-01-26 00:00:00,
2013-01-26 01:10:00,3.0,-0.5,30.11,SE,135,2.0,2.0,85,0.00,CLR,,0.00,WeatherDisplay:10.37,2013-01-26 00:10:00,
2013-01-26 01:30:00,2.8,-0.6,30.11,SE,135,2.0,2.0,85,0.00,CLR,,0.00,WeatherDisplay:10.37,2013-01-26 00:30:00,
2013-01-26 01:40:00,2.8,-0.6,30.10,SE,135,2.0,2.0,85,0.00,CLR,,0.00,WeatherDisplay:10.37,2013-01-26 00:40:00,
2013-01-26 02:00:00,2.5,-1.0,30.10,SE,124,1.0,2.0,85,0.00,CLR,,0.00,WeatherDisplay:10.37,2013-01-26 01:00:00,
2013-01-26 02:10:00,2.5,-1.0,30.10,SE,135,0.0,0.0,85,0.00,CLR,,0.00,WeatherDisplay:10.37,2013-01-26 01:10:00,
2013-01-26 02:20:00,2.5,-1.0,30.09,SE,135,0.0,0.0,85,0.00,CLR,,0.00,WeatherDisplay:10.37,2013-01-26 01:20:00,
2013-01-26 02:30:00,2.5,-1.0,30.08,SE,135,0.0,1.0,85,0.00,CLR,,0.00,WeatherDisplay:10.37,2013-01-26 01:30:00,
2013-01-26 02:40:00,2.8,-0.6,30.08,SE,135,1.0,1.0,85,0.00,CLR,,0.00,WeatherDisplay:10.37,2013-01-26 01:40:00,
2013-01-26 02:50:00,2.8,-0.6,30.08,ESE,123,0.0,1.0,85,0.00,CLR,,0.00,WeatherDisplay:10.37,2013-01-26 01:50:00,
2013-01-26 03:00:00,2.8,-0.4,30.07,ESE,112,0.0,0.0,86,0.00,CLR,,0.00,WeatherDisplay:10.37,2013-01-26 02:00:00,
2013-01-26 03:10:00,3.0,-0.2,30.07,ESE,112,0.0,3.0,86,0.00,CLR,,0.00,WeatherDisplay:10.37,2013-01-26 02:10:00,
2013-01-26 03:20:00,3.4,0.1,30.07,ESE,113,0.0,3.0,86,0.00,CLR,,0.00,WeatherDisplay:10.37,2013-01-26 02:20:00,
2013-01-26 03:30:00,3.9,0.7,30.07,SE,124,0.0,0.0,86,0.00,FEW,,0.00,WeatherDisplay:10.37,2013-01-26 02:30:00,
2013-01-26 03:40:00,4.3,1.3,30.07,SE,135,0.0,0.0,87,0.00,SCT,,0.00,WeatherDisplay:10.37,2013-01-26 02:40:00,
2013-01-26 03:50:00,4.6,1.6,30.07,SSE,148,1.0,1.0,87,0.00,SCT,,0.00,WeatherDisplay:10.37,2013-01-26 02:50:00,
2013-01-26 04:00:00,5.2,2.2,30.07,SE,135,0.0,0.0,87,0.00,SCT,,0.00,WeatherDisplay:10.37,2013-01-26 03:00:00,
2013-01-26 04:10:00,5.5,2.5,30.07,NNE,33,1.0,1.0,87,0.00,SCT,,0.00,WeatherDisplay:10.37,2013-01-26 03:10:00,
2013-01-26 04:20:00,5.5,2.5,30.06,SSW,213,0.0,0.0,87,0.00,SCT,,0.00,WeatherDisplay:10.37,2013-01-26 03:20:00,
2013-01-26 04:31:00,5.7,2.7,30.06,NW,315,0.0,1.0,87,0.00,SCT,,0.00,WeatherDisplay:10.37,2013-01-26 03:31:00,
2013-01-26 04:40:00,6.1,3.0,30.06,ESE,104,0.0,1.0,87,0.00,SCT,,0.00,WeatherDisplay:10.37,2013-01-26 03:40:00,
2013-01-26 04:50:00,6.1,3.3,30.06,NW,315,0.0,0.0,88,0.00,BKN,,0.00,WeatherDisplay:10.37,2013-01-26 03:50:00,
2013-01-26 05:00:00,6.3,3.5,30.06,NW,319,1.0,2.0,88,0.00,BKN,,0.00,WeatherDisplay:10.37,2013-01-26 04:00:00,
2013-01-26 05:10:00,6.4,3.6,30.06,NE,56,0.0,0.0,88,0.00,BKN,,0.00,WeatherDisplay:10.37,2013-01-26 04:10:00,
2013-01-26 05:20:00,6.6,3.8,30.06,North,355,0.0,0.0,88,0.00,SCT,,0.00,WeatherDisplay:10.37,2013-01-26 04:20:00,
2013-01-26 05:30:00,6.6,3.8,30.06,SE,135,0.0,0.0,88,0.00,SCT,,0.00,WeatherDisplay:10.37,2013-01-26 04:30:00,
2013-01-26 05:40:00,7.0,4.2,30.06,SSW,213,0.0,0.0,88,0.00,SCT,,0.00,WeatherDisplay:10.37,2013-01-26 04:40:00,
2013-01-26 05:50:00,7.2,4.4,30.06,WNW,292,0.0,0.0,88,0.00,SCT,,0.00,WeatherDisplay:10.37,2013-01-26 04:50:00,
2013-01-26 06:00:00,7.3,4.8,30.06,WNW,292,0.0,0.0,89,0.00,SCT,,0.00,WeatherDisplay:10.37,2013-01-26 05:00:00,
2013-01-26 06:10:00,7.5,5.0,30.06,WNW,292,0.0,0.0,89,0.00,SCT,,0.00,WeatherDisplay:10.37,2013-01-26 05:10:00,
2013-01-26 06:20:00,7.5,5.0,30.06,WNW,292,0.0,0.0,89,0.00,BKN,,0.00,WeatherDisplay:10.37,2013-01-26 05:20:00,
2013-01-26 06:30:00,7.5,5.0,30.06,WNW,292,1.0,1.0,89,0.00,BKN,,0.00,WeatherDisplay:10.37,2013-01-26 05:30:00,
2013-01-26 06:40:00,7.5,5.0,30.06,WNW,292,0.0,0.0,89,0.00,BKN,,0.00,WeatherDisplay:10.37,2013-01-26 05:40:00,
2013-01-26 06:51:00,7.3,4.8,30.06,SE,138,0.0,0.0,89,0.00,BKN,,0.00,WeatherDisplay:10.37,2013-01-26 05:51:00,
2013-01-26 07:00:00,7.0,4.4,30.06,NW,315,1.0,14.0,89,0.00,BKN,,0.00,WeatherDisplay:10.37,2013-01-26 06:00:00,
2013-01-26 07:10:00,6.6,4.1,30.06,SE,135,0.0,9.0,89,0.00,SCT,,0.00,WeatherDisplay:10.37,2013-01-26 06:10:00,
2013-01-26 07:20:00,6.4,3.6,30.06,SE,135,0.0,0.0,88,0.00,SCT,,0.00,WeatherDisplay:10.37,2013-01-26 06:20:00,
2013-01-26 07:30:00,6.1,3.3,30.06,SE,135,0.0,0.0,88,0.00,FEW,,0.00,WeatherDisplay:10.37,2013-01-26 06:30:00,
2013-01-26 07:40:00,5.5,2.8,30.06,SE,135,0.0,0.0,88,0.00,FEW,,0.00,WeatherDisplay:10.37,2013-01-26 06:40:00,
2013-01-26 07:50:00,5.2,2.4,30.06,SSW,202,0.0,0.0,88,0.00,FEW,,0.00,WeatherDisplay:10.37,2013-01-26 06:50:00,
2013-01-26 08:00:00,4.8,2.0,30.06,WNW,290,0.0,0.0,88,0.00,BKN,,0.00,WeatherDisplay:10.37,2013-01-26 07:00:00,
2013-01-26 08:10:00,4.6,1.9,30.06,WNW,292,0.0,0.0,88,0.00,BKN,,0.00,WeatherDisplay:10.37,2013-01-26 07:10:00,
2013-01-26 08:21:00,4.3,1.5,30.06,WNW,292,0.0,0.0,88,0.00,BKN,,0.00,WeatherDisplay:10.37,2013-01-26 07:21:00,
2013-01-26 08:30:00,4.3,1.5,30.07,WNW,292,0.0,0.0,88,0.00,BKN,,0.00,WeatherDisplay:10.37,2013-01-26 07:30:00,
2013-01-26 08:41:00,4.6,1.9,30.07,WNW,292,0.0,0.0,88,0.00,BKN,,0.00,WeatherDisplay:10.37,2013-01-26 07:41:00,
2013-01-26 08:51:00,5.2,2.4,30.07,WNW,292,0.0,0.0,88,0.00,BKN,,0.00,WeatherDisplay:10.37,2013-01-26 07:51:00,
2013-01-26 09:00:00,5.7,2.9,30.06,WNW,292,0.0,0.0,88,0.00,-SN,,0.00,WeatherDisplay:10.37,2013-01-26 08:00:00,
2013-01-26 09:10:00,6.4,3.6,30.06,WNW,292,0.0,0.0,88,0.00,-SN,,0.00,WeatherDisplay:10.37,2013-01-26 08:10:00,
2013-01-26 09:20:00,7.0,4.2,30.07,WNW,292,0.0,0.0,88,0.00,-SN,,0.00,WeatherDisplay:10.37,2013-01-26 08:20:00,
2013-01-26 09:30:00,7.3,4.5,30.07,WNW,292,0.0,0.0,88,0.00,-SN,,0.00,WeatherDisplay:10.37,2013-01-26 08:30:00,
2013-01-26 09:41:00,8.2,5.4,30.06,SSE,160,1.0,14.0,88,0.00,-SN,,0.00,WeatherDisplay:10.37,2013-01-26 08:41:00,
2013-01-26 09:50:00,8.6,6.0,30.06,SE,124,0.0,10.0,89,0.00,-SN,,0.00,WeatherDisplay:10.37,2013-01-26 08:50:00,
2013-01-26 10:00:00,9.0,6.4,30.06,SSE,158,0.0,0.0,89,0.00,-SN,,0.00,WeatherDisplay:10.37,2013-01-26 09:00:00,
2013-01-26 10:10:00,8.8,5.7,30.07,SW,236,0.0,0.0,87,0.00,-SN,,0.00,WeatherDisplay:10.37,2013-01-26 09:10:00,
2013-01-26 10:21:00,9.0,5.6,30.07,South,191,0.0,0.0,86,0.00,OVC,,0.00,WeatherDisplay:10.37,2013-01-26 09:21:00,
2013-01-26 10:30:00,9.1,5.8,30.07,ENE,78,0.0,0.0,86,0.00,OVC,,0.00,WeatherDisplay:10.37,2013-01-26 09:30:00,
2013-01-26 10:40:00,9.5,5.9,30.07,SW,225,0.0,0.0,85,0.00,OVC,,0.00,WeatherDisplay:10.37,2013-01-26 09:40:00,
2013-01-26 10:50:00,9.5,5.9,30.07,WSW,255,0.0,0.0,85,0.00,OVC,,0.00,WeatherDisplay:10.37,2013-01-26 09:50:00,
2013-01-26 11:00:00,10.0,6.7,30.07,WNW,292,0.0,0.0,86,0.00,OVC,,0.00,WeatherDisplay:10.37,2013-01-26 10:00:00,
2013-01-26 11:10:00,10.6,6.7,30.07,SSW,213,0.0,0.0,84,0.00,OVC,,0.00,WeatherDisplay:10.37,2013-01-26 10:10:00,
2013-01-26 11:20:00,10.9,7.3,30.07,South,180,0.0,0.0,85,0.00,-SN,,0.00,WeatherDisplay:10.37,2013-01-26 10:20:00,
2013-01-26 11:30:00,12.4,9.0,30.06,SW,236,0.0,0.0,86,0.00,-SN,,0.00,WeatherDisplay:10.37,2013-01-26 10:30:00,
2013-01-26 11:40:00,12.9,9.3,30.06,West,259,0.0,0.0,85,0.00,-SN,,0.00,WeatherDisplay:10.37,2013-01-26 10:40:00,
2013-01-26 11:50:00,14.2,10.5,30.06,WSW,255,0.0,0.0,85,0.00,-SN,,0.00,WeatherDisplay:10.37,2013-01-26 10:50:00,
2013-01-26 12:00:00,14.4,10.7,30.06,North,8,0.0,0.0,85,0.00,-SN,,0.00,WeatherDisplay:10.37,2013-01-26 11:00:00,
2013-01-26 12:10:00,16.5,12.0,30.06,West,259,0.0,0.0,82,0.00,-SN,,0.00,WeatherDisplay:10.37,2013-01-26 11:10:00,
2013-01-26 12:20:00,17.4,12.0,30.05,ENE,65,2.0,2.0,79,0.00,-SN,,0.00,WeatherDisplay:10.37,2013-01-26 11:20:00,
2013-01-26 12:30:00,17.4,11.7,30.05,ESE,112,0.0,2.0,78,0.00,BKN,,0.00,WeatherDisplay:10.37,2013-01-26 11:30:00,
2013-01-26 12:40:00,18.0,12.3,30.05,SE,135,0.0,1.0,78,0.00,BKN,,0.00,WeatherDisplay:10.37,2013-01-26 11:40:00,
2013-01-26 12:50:00,18.3,12.3,30.04,West,274,3.0,4.0,77,0.00,BKN,,0.00,WeatherDisplay:10.37,2013-01-26 11:50:00,
2013-01-26 13:00:00,18.5,12.5,30.04,NW,315,0.0,0.0,77,0.00,BKN,,0.00,WeatherDisplay:10.37,2013-01-26 12:00:00,
2013-01-26 13:10:00,18.1,12.1,30.04,NW,315,0.0,0.0,77,0.00,BKN,,0.00,WeatherDisplay:10.37,2013-01-26 12:10:00,
2013-01-26 13:20:00,18.3,12.0,30.04,NNW,341,0.0,0.0,76,0.00,OVC,,0.00,WeatherDisplay:10.37,2013-01-26 12:20:00,
2013-01-26 13:31:00,18.0,12.5,30.04,WNW,292,0.0,0.0,79,0.00,OVC,,0.00,WeatherDisplay:10.37,2013-01-26 12:31:00,
2013-01-26 13:40:00,17.4,12.9,30.04,NW,315,0.0,0.0,82,0.00,OVC,,0.00,WeatherDisplay:10.37,2013-01-26 12:40:00,
2013-01-26 13:50:00,16.9,12.3,30.04,South,169,0.0,0.0,82,0.00,-SN,,0.00,WeatherDisplay:10.37,2013-01-26 12:50:00,
2013-01-26 14:00:00,16.3,11.8,30.04,South,169,0.0,0.0,82,0.00,-SN,,0.00,WeatherDisplay:10.37,2013-01-26 13:00:00,
2013-01-26 14:10:00,16.2,11.9,30.04,West,281,0.0,0.0,83,0.00,-SN,,0.00,WeatherDisplay:10.37,2013-01-26 13:10:00,
2013-01-26 14:21:00,16.0,11.7,30.04,West,271,1.0,1.0,83,0.00,-SN,,0.00,WeatherDisplay:10.37,2013-01-26 13:21:00,
2013-01-26 14:30:00,16.2,11.9,30.04,WNW,292,0.0,0.0,83,0.00,-SN,,0.00,WeatherDisplay:10.37,2013-01-26 13:30:00,
2013-01-26 14:40:00,16.0,11.5,30.04,NNW,343,0.0,0.0,82,0.00,-SN,,0.00,WeatherDisplay:10.37,2013-01-26 13:40:00,
2013-01-26 14:50:00,16.2,11.9,30.04,West,265,0.0,0.0,83,0.00,-SN,,0.00,WeatherDisplay:10.37,2013-01-26 13:50:00,
2013-01-26 15:00:00,16.3,12.1,30.05,South,191,0.0,0.0,83,0.00,OVC,,0.00,WeatherDisplay:10.37,2013-01-26 14:00:00,
2013-01-26 15:10:00,16.3,12.4,30.05,South,180,0.0,0.0,84,0.00,OVC,,0.00,WeatherDisplay:10.37,2013-01-26 14:10:00,
2013-01-26 15:20:00,16.3,12.1,30.05,ESE,118,0.0,0.0,83,0.00,OVC,,0.00,WeatherDisplay:10.37,2013-01-26 14:20:00,
2013-01-26 15:30:00,16.3,12.4,30.05,ESE,112,0.0,0.0,84,0.00,OVC,,0.00,WeatherDisplay:10.37,2013-01-26 14:30:00,
2013-01-26 15:40:00,16.5,12.5,30.05,SSE,163,0.0,0.0,84,0.00,OVC,,0.00,WeatherDisplay:10.37,2013-01-26 14:40:00,
2013-01-26 15:50:00,16.3,12.4,30.05,South,169,0.0,0.0,84,0.00,OVC,,0.00,WeatherDisplay:10.37,2013-01-26 14:50:00,
2013-01-26 16:01:00,16.5,12.5,30.05,WNW,292,0.0,0.0,84,0.00,OVC,,0.00,WeatherDisplay:10.37,2013-01-26 15:01:00,
2013-01-26 16:10:00,16.3,12.4,30.05,WSW,246,1.0,1.0,84,0.00,OVC,,0.00,WeatherDisplay:10.37,2013-01-26 15:10:00,
2013-01-26 16:40:00,16.3,12.4,30.05,SW,236,0.0,0.0,84,0.00,OVC,,0.00,WeatherDisplay:10.37,2013-01-26 15:40:00,
2013-01-26 16:50:00,16.3,12.1,30.05,South,191,0.0,0.0,83,0.00,OVC,,0.00,WeatherDisplay:10.37,2013-01-26 15:50:00,
2013-01-26 17:00:00,16.3,12.4,30.05,SSE,147,0.0,0.0,84,0.00,-SN,,0.00,WeatherDisplay:10.37,2013-01-26 16:00:00,
2013-01-26 17:10:00,16.3,12.4,30.05,SSE,158,0.0,0.0,84,0.00,-SN,,0.00,WeatherDisplay:10.37,2013-01-26 16:10:00,
2013-01-26 17:21:00,16.3,12.4,30.05,SE,135,0.0,0.0,84,0.00,-SN,,0.00,WeatherDisplay:10.37,2013-01-26 16:21:00,
2013-01-26 17:30:00,16.3,12.4,30.05,SE,135,0.0,0.0,84,0.00,-SN,,0.00,WeatherDisplay:10.37,2013-01-26 16:30:00,
2013-01-26 17:40:00,16.3,12.1,30.04,SE,135,0.0,0.0,83,0.00,-SN,,0.00,WeatherDisplay:10.37,2013-01-26 16:40:00,
2013-01-26 17:50:00,16.2,11.9,30.04,SE,135,0.0,0.0,83,0.00,-SN,,0.00,WeatherDisplay:10.37,2013-01-26 16:50:00,
2013-01-26 18:00:00,16.2,12.2,30.04,SE,135,0.0,0.0,84,0.00,OVC,,0.00,WeatherDisplay:10.37,2013-01-26 17:00:00,
2013-01-26 18:10:00,16.2,12.2,30.04,WNW,292,0.0,0.0,84,0.00,OVC,,0.00,WeatherDisplay:10.37,2013-01-26 17:10:00,
2013-01-26 18:20:00,16.2,12.2,30.05,SSE,147,0.0,0.0,84,0.00,OVC,,0.00,WeatherDisplay:10.37,2013-01-26 17:20:00,
2013-01-26 18:30:00,16.3,12.4,30.05,SE,138,1.0,1.0,84,0.00,OVC,,0.00,WeatherDisplay:10.37,2013-01-26 17:30:00,
2013-01-26 18:41:00,16.2,11.9,30.05,SE,135,0.0,1.0,83,0.00,OVC,,0.00,WeatherDisplay:10.37,2013-01-26 17:41:00,
2013-01-26 18:50:00,16.3,12.1,30.05,WNW,292,0.0,1.0,83,0.00,OVC,,0.00,WeatherDisplay:10.37,2013-01-26 17:50:00,
2013-01-26 19:00:00,16.3,12.1,30.05,ESE,112,0.0,0.0,83,0.00,OVC,,0.00,WeatherDisplay:10.37,2013-01-26 18:00:00,
2013-01-26 19:10:00,16.3,12.1,30.05,South,191,0.0,0.0,83,0.00,OVC,,0.00,WeatherDisplay:10.37,2013-01-26 18:10:00,
2013-01-26 19:20:00,16.3,12.1,30.05,ESE,121,0.0,2.0,83,0.00,OVC,,0.00,WeatherDisplay:10.37,2013-01-26 18:20:00,
2013-01-26 19:31:00,16.3,11.8,30.05,SE,135,0.0,2.0,82,0.00,OVC,,0.00,WeatherDisplay:10.37,2013-01-26 18:31:00,
2013-01-26 19:40:00,16.3,11.8,30.04,SE,135,2.0,3.0,82,0.00,OVC,,0.00,WeatherDisplay:10.37,2013-01-26 18:40:00,
2013-01-26 19:51:00,16.5,12.3,30.04,SE,135,0.0,0.0,83,0.00,OVC,,0.00,WeatherDisplay:10.37,2013-01-26 18:51:00,
2013-01-26 20:00:00,16.5,12.3,30.03,SE,127,2.0,5.0,83,0.00,OVC,,0.00,WeatherDisplay:10.37,2013-01-26 19:00:00,
2013-01-26 20:11:00,16.5,12.3,30.03,SE,130,0.0,0.0,83,0.00,OVC,,0.00,WeatherDisplay:10.37,2013-01-26 19:11:00,
2013-01-26 20:20:00,16.5,12.3,30.04,SE,135,0.0,0.0,83,0.00,OVC,,0.00,WeatherDisplay:10.37,2013-01-26 19:20:00,
2013-01-26 20:30:00,16.7,12.4,30.04,SE,135,1.0,1.0,83,0.00,OVC,,0.00,WeatherDisplay:10.37,2013-01-26 19:30:00,
2013-01-26 20:40:00,16.9,12.6,30.05,NW,315,0.0,0.0,83,0.00,OVC,,0.00,WeatherDisplay:10.37,2013-01-26 19:40:00,
2013-01-26 20:50:00,16.9,12.6,30.05,SE,135,0.0,2.0,83,0.00,OVC,,0.00,WeatherDisplay:10.37,2013-01-26 19:50:00,
2013-01-26 21:00:00,16.9,12.6,30.05,SE,135,0.0,0.0,83,0.00,OVC,,0.00,WeatherDisplay:10.37,2013-01-26 20:00:00,
2013-01-26 21:11:00,16.9,12.6,30.06,West,265,0.0,0.0,83,0.00,OVC,,0.00,WeatherDisplay:10.37,2013-01-26 20:11:00,
2013-01-26 21:20:00,17.1,12.8,30.05,WSW,247,0.0,0.0,83,0.00,OVC,,0.00,WeatherDisplay:10.37,2013-01-26 20:20:00,
2013-01-26 21:30:00,17.2,13.0,30.05,SSW,213,0.0,0.0,83,0.00,OVC,,0.00,WeatherDisplay:10.37,2013-01-26 20:30:00,
2013-01-26 21:40:00,17.2,13.0,30.05,SE,135,0.0,0.0,83,0.00,OVC,,0.00,WeatherDisplay:10.37,2013-01-26 20:40:00,
2013-01-26 21:50:00,17.2,13.0,30.03,SSW,213,0.0,0.0,83,0.00,OVC,,0.00,WeatherDisplay:10.37,2013-01-26 20:50:00,
2013-01-26 22:01:00,17.2,13.0,30.04,SE,135,0.0,0.0,83,0.00,OVC,,0.00,WeatherDisplay:10.37,2013-01-26 21:01:00,
2013-01-26 22:10:00,17.2,13.0,30.03,ESE,114,0.0,0.0,83,0.00,OVC,,0.00,WeatherDisplay:10.37,2013-01-26 21:10:00,
2013-01-26 22:21:00,17.2,13.0,30.03,SE,124,1.0,1.0,83,0.00,OVC,,0.00,WeatherDisplay:10.37,2013-01-26 21:21:00,
2013-01-26 22:30:00,17.4,13.1,30.03,NW,315,0.0,0.0,83,0.00,OVC,,0.00,WeatherDisplay:10.37,2013-01-26 21:30:00,
2013-01-26 22:40:00,17.4,13.1,30.03,SE,124,0.0,0.0,83,0.00,OVC,,0.00,WeatherDisplay:10.37,2013-01-26 21:40:00,
2013-01-26 22:50:00,17.4,13.1,30.02,WNW,303,0.0,0.0,83,0.00,OVC,,0.00,WeatherDisplay:10.37,2013-01-26 21:50:00,
2013-01-26 23:00:00,17.4,13.1,30.02,NW,315,0.0,0.0,83,0.00,OVC,,0.00,WeatherDisplay:10.37,2013-01-26 22:00:00,
2013-01-26 23:10:00,17.6,13.6,30.01,SE,129,3.0,3.0,84,0.00,OVC,,0.00,WeatherDisplay:10.37,2013-01-26 22:10:00,
2013-01-26 23:20:00,17.4,13.1,30.01,SE,135,2.0,3.0,83,0.00,OVC,,0.00,WeatherDisplay:10.37,2013-01-26 22:20:00,
2013-01-26 23:30:00,17.4,13.1,30.01,SE,135,1.0,2.0,83,0.00,OVC,,0.00,WeatherDisplay:10.37,2013-01-26 22:30:00,
2013-01-26 23:40:00,17.4,13.1,30.02,ESE,119,2.0,2.0,83,0.00,OVC,,0.00,WeatherDisplay:10.37,2013-01-26 22:40:00,
2013-01-26 23:51:00,17.4,13.1,30.02,SE,131,0.0,0.0,83,0.00,OVC,,0.00,WeatherDisplay:10.37,2013-01-26 22:51:00,